sensor_id;sensor_type;location;lat;lon;timestamp;temperature;humidity
580;DHT22;276;48.392;9.950;2023-04-01T00:01:27;10.00;99.90
580;DHT22;276;48.392;9.950;2023-04-01T00:03:53;10.00;99.90
580;DHT22;276;48.392;9.950;2023-04-01T00:06:19;10.00;99.90
580;DHT22;276;48.392;9.950;2023-04-01T00:08:45;10.00;99.90
580;DHT22;276;48.392;9.950;2023-04-01T00:11:12;10.00;99.90
580;DHT22;276;48.392;9.950;2023-04-01T00:13:40;10.00;99.90
580;DHT22;276;48.392;9.950;2023-04-01T00:16:08;10.00;99.90
580;DHT22;276;48.392;9.950;2023-04-01T00:18:36;10.10;99.90
580;DHT22;276;48.392;9.950;2023-04-01T00:21:01;10.10;99.90
580;DHT22;276;48.392;9.950;2023-04-01T00:23:27;10.10;99.90
580;DHT22;276;48.392;9.950;2023-04-01T00:25:53;10.10;99.90
580;DHT22;276;48.392;9.950;2023-04-01T00:28:21;10.10;99.90
580;DHT22;276;48.392;9.950;2023-04-01T00:30:47;10.10;99.90
580;DHT22;276;48.392;9.950;2023-04-01T00:33:15;10.10;99.90
580;DHT22;276;48.392;9.950;2023-04-01T00:35:41;10.10;99.90
580;DHT22;276;48.392;9.950;2023-04-01T00:38:07;10.10;99.90
580;DHT22;276;48.392;9.950;2023-04-01T00:40:42;10.10;99.90
580;DHT22;276;48.392;9.950;2023-04-01T00:43:19;10.10;99.90
580;DHT22;276;48.392;9.950;2023-04-01T00:45:47;10.10;99.90
580;DHT22;276;48.392;9.950;2023-04-01T00:48:33;10.00;99.90
580;DHT22;276;48.392;9.950;2023-04-01T00:51:05;10.10;99.90
580;DHT22;276;48.392;9.950;2023-04-01T00:53:33;10.10;99.90
580;DHT22;276;48.392;9.950;2023-04-01T00:56:04;10.10;99.90
580;DHT22;276;48.392;9.950;2023-04-01T00:58:34;10.10;99.90
580;DHT22;276;48.392;9.950;2023-04-01T01:01:03;10.10;99.90
580;DHT22;276;48.392;9.950;2023-04-01T01:03:31;10.10;99.90
580;DHT22;276;48.392;9.950;2023-04-01T01:11:33;10.00;99.90
580;DHT22;276;48.392;9.950;2023-04-01T01:17:16;10.00;99.90
580;DHT22;276;48.392;9.950;2023-04-01T01:31:16;9.90;99.90
580;DHT22;276;48.392;9.950;2023-04-01T01:36:21;9.80;99.90
580;DHT22;276;48.392;9.950;2023-04-01T01:38:48;9.80;99.90
580;DHT22;276;48.392;9.950;2023-04-01T01:41:16;9.80;99.90
580;DHT22;276;48.392;9.950;2023-04-01T01:43:46;9.70;99.90
580;DHT22;276;48.392;9.950;2023-04-01T01:46:16;9.70;99.90
580;DHT22;276;48.392;9.950;2023-04-01T01:48:43;9.70;99.90
580;DHT22;276;48.392;9.950;2023-04-01T01:51:10;9.70;99.90
580;DHT22;276;48.392;9.950;2023-04-01T01:53:36;9.70;99.90
580;DHT22;276;48.392;9.950;2023-04-01T01:56:02;9.60;99.90
580;DHT22;276;48.392;9.950;2023-04-01T01:58:32;9.50;99.90
580;DHT22;276;48.392;9.950;2023-04-01T02:01:10;9.50;99.90
580;DHT22;276;48.392;9.950;2023-04-01T02:03:42;9.60;99.90
580;DHT22;276;48.392;9.950;2023-04-01T02:06:11;9.50;99.90
580;DHT22;276;48.392;9.950;2023-04-01T02:09:05;9.50;99.90
580;DHT22;276;48.392;9.950;2023-04-01T02:14:22;9.50;99.90
580;DHT22;276;48.392;9.950;2023-04-01T02:16:53;9.50;99.90
580;DHT22;276;48.392;9.950;2023-04-01T02:19:22;9.50;99.90
580;DHT22;276;48.392;9.950;2023-04-01T02:21:59;9.50;99.90
580;DHT22;276;48.392;9.950;2023-04-01T02:24:30;9.50;99.90
580;DHT22;276;48.392;9.950;2023-04-01T02:26:59;9.50;99.90
580;DHT22;276;48.392;9.950;2023-04-01T02:29:25;9.50;99.90
580;DHT22;276;48.392;9.950;2023-04-01T02:31:54;9.50;99.90
580;DHT22;276;48.392;9.950;2023-04-01T02:34:24;9.50;99.90
580;DHT22;276;48.392;9.950;2023-04-01T02:36:51;9.50;99.90
580;DHT22;276;48.392;9.950;2023-04-01T02:39:17;9.50;99.90
580;DHT22;276;48.392;9.950;2023-04-01T02:41:44;9.50;99.90
580;DHT22;276;48.392;9.950;2023-04-01T02:44:11;9.50;99.90
580;DHT22;276;48.392;9.950;2023-04-01T02:46:37;9.60;99.90
580;DHT22;276;48.392;9.950;2023-04-01T02:49:05;9.60;99.90
580;DHT22;276;48.392;9.950;2023-04-01T02:51:31;9.60;99.90
580;DHT22;276;48.392;9.950;2023-04-01T02:53:57;9.60;99.90
580;DHT22;276;48.392;9.950;2023-04-01T02:56:23;9.60;99.90
580;DHT22;276;48.392;9.950;2023-04-01T02:58:49;9.60;99.90
580;DHT22;276;48.392;9.950;2023-04-01T03:01:14;9.50;99.90
580;DHT22;276;48.392;9.950;2023-04-01T03:03:40;9.50;99.90
580;DHT22;276;48.392;9.950;2023-04-01T03:06:12;9.40;99.90
580;DHT22;276;48.392;9.950;2023-04-01T03:08:38;9.40;99.90
580;DHT22;276;48.392;9.950;2023-04-01T03:11:06;9.40;99.90
580;DHT22;276;48.392;9.950;2023-04-01T03:13:32;9.40;99.90
580;DHT22;276;48.392;9.950;2023-04-01T03:15:58;9.40;99.90
580;DHT22;276;48.392;9.950;2023-04-01T03:18:24;9.40;99.90
580;DHT22;276;48.392;9.950;2023-04-01T03:20:51;9.40;99.90
580;DHT22;276;48.392;9.950;2023-04-01T03:23:17;9.50;99.90
580;DHT22;276;48.392;9.950;2023-04-01T03:25:48;9.40;99.90
580;DHT22;276;48.392;9.950;2023-04-01T03:28:14;9.40;99.90
580;DHT22;276;48.392;9.950;2023-04-01T03:30:40;9.40;99.90
580;DHT22;276;48.392;9.950;2023-04-01T03:33:07;9.40;99.90
580;DHT22;276;48.392;9.950;2023-04-01T03:35:33;9.40;99.90
580;DHT22;276;48.392;9.950;2023-04-01T03:38:01;9.40;99.90
580;DHT22;276;48.392;9.950;2023-04-01T03:40:27;9.40;99.90
580;DHT22;276;48.392;9.950;2023-04-01T03:42:52;9.40;99.90
580;DHT22;276;48.392;9.950;2023-04-01T03:45:20;9.40;99.90
580;DHT22;276;48.392;9.950;2023-04-01T03:47:46;9.40;99.90
580;DHT22;276;48.392;9.950;2023-04-01T03:50:12;9.40;99.90
580;DHT22;276;48.392;9.950;2023-04-01T03:52:37;9.40;99.90
580;DHT22;276;48.392;9.950;2023-04-01T03:55:03;9.50;99.90
580;DHT22;276;48.392;9.950;2023-04-01T03:57:31;9.40;99.90
580;DHT22;276;48.392;9.950;2023-04-01T03:59:57;9.40;99.90
580;DHT22;276;48.392;9.950;2023-04-01T04:02:25;9.40;99.90
580;DHT22;276;48.392;9.950;2023-04-01T04:04:50;9.50;99.90
580;DHT22;276;48.392;9.950;2023-04-01T04:07:18;9.50;99.90
580;DHT22;276;48.392;9.950;2023-04-01T04:09:44;9.50;99.90
580;DHT22;276;48.392;9.950;2023-04-01T04:12:10;9.60;99.90
580;DHT22;276;48.392;9.950;2023-04-01T04:14:35;9.60;99.90
580;DHT22;276;48.392;9.950;2023-04-01T04:17:03;9.60;99.90
580;DHT22;276;48.392;9.950;2023-04-01T04:19:32;9.60;99.90
580;DHT22;276;48.392;9.950;2023-04-01T04:21:59;9.60;99.90
580;DHT22;276;48.392;9.950;2023-04-01T04:24:26;9.60;99.90
580;DHT22;276;48.392;9.950;2023-04-01T04:26:54;9.60;99.90
580;DHT22;276;48.392;9.950;2023-04-01T04:29:22;9.50;99.90
580;DHT22;276;48.392;9.950;2023-04-01T04:31:53;9.50;99.90
580;DHT22;276;48.392;9.950;2023-04-01T04:34:21;9.50;99.90
580;DHT22;276;48.392;9.950;2023-04-01T04:36:49;9.40;99.90
580;DHT22;276;48.392;9.950;2023-04-01T04:39:17;9.40;99.90
580;DHT22;276;48.392;9.950;2023-04-01T04:41:43;9.50;99.90
580;DHT22;276;48.392;9.950;2023-04-01T04:44:08;9.40;99.90
580;DHT22;276;48.392;9.950;2023-04-01T04:46:34;9.40;99.90
580;DHT22;276;48.392;9.950;2023-04-01T04:48:59;9.40;99.90
580;DHT22;276;48.392;9.950;2023-04-01T04:51:25;9.40;99.90
580;DHT22;276;48.392;9.950;2023-04-01T04:53:51;9.30;99.90
580;DHT22;276;48.392;9.950;2023-04-01T04:56:19;9.30;99.90
580;DHT22;276;48.392;9.950;2023-04-01T04:58:50;9.30;99.90
580;DHT22;276;48.392;9.950;2023-04-01T05:01:19;9.20;99.90
580;DHT22;276;48.392;9.950;2023-04-01T05:03:47;9.20;99.90
580;DHT22;276;48.392;9.950;2023-04-01T05:06:14;9.30;99.90
580;DHT22;276;48.392;9.950;2023-04-01T05:08:43;9.20;99.90
580;DHT22;276;48.392;9.950;2023-04-01T05:11:12;9.20;99.90
580;DHT22;276;48.392;9.950;2023-04-01T05:13:38;9.20;99.90
580;DHT22;276;48.392;9.950;2023-04-01T05:16:11;9.20;99.90
580;DHT22;276;48.392;9.950;2023-04-01T05:18:37;9.20;99.90
580;DHT22;276;48.392;9.950;2023-04-01T05:21:03;9.20;99.90
580;DHT22;276;48.392;9.950;2023-04-01T05:23:32;9.30;99.90
580;DHT22;276;48.392;9.950;2023-04-01T05:25:58;9.30;99.90
580;DHT22;276;48.392;9.950;2023-04-01T05:28:24;9.20;99.90
580;DHT22;276;48.392;9.950;2023-04-01T05:30:50;9.20;99.90
580;DHT22;276;48.392;9.950;2023-04-01T05:33:15;9.20;99.90
580;DHT22;276;48.392;9.950;2023-04-01T05:35:41;9.20;99.90
580;DHT22;276;48.392;9.950;2023-04-01T05:38:09;9.20;99.90
580;DHT22;276;48.392;9.950;2023-04-01T05:40:37;9.20;99.90
580;DHT22;276;48.392;9.950;2023-04-01T05:43:03;9.20;99.90
580;DHT22;276;48.392;9.950;2023-04-01T05:45:28;9.20;99.90
580;DHT22;276;48.392;9.950;2023-04-01T05:47:54;9.30;99.90
580;DHT22;276;48.392;9.950;2023-04-01T05:50:22;9.20;99.90
580;DHT22;276;48.392;9.950;2023-04-01T05:52:47;9.30;99.90
580;DHT22;276;48.392;9.950;2023-04-01T05:55:13;9.30;99.90
580;DHT22;276;48.392;9.950;2023-04-01T05:57:41;9.30;99.90
580;DHT22;276;48.392;9.950;2023-04-01T06:00:09;9.40;99.90
580;DHT22;276;48.392;9.950;2023-04-01T06:02:40;9.40;99.90
580;DHT22;276;48.392;9.950;2023-04-01T06:05:28;9.40;99.90
580;DHT22;276;48.392;9.950;2023-04-01T06:08:09;9.50;99.90
580;DHT22;276;48.392;9.950;2023-04-01T06:20:02;9.40;99.90
580;DHT22;276;48.392;9.950;2023-04-01T06:41:17;9.50;99.90
580;DHT22;276;48.392;9.950;2023-04-01T06:46:51;9.60;99.90
580;DHT22;276;48.392;9.950;2023-04-01T06:49:31;9.60;99.90
580;DHT22;276;48.392;9.950;2023-04-01T06:54:34;9.70;99.90
580;DHT22;276;48.392;9.950;2023-04-01T06:57:19;9.80;99.90
580;DHT22;276;48.392;9.950;2023-04-01T06:59:46;9.80;99.90
580;DHT22;276;48.392;9.950;2023-04-01T07:02:18;9.90;99.90
580;DHT22;276;48.392;9.950;2023-04-01T07:04:48;9.90;99.90
580;DHT22;276;48.392;9.950;2023-04-01T07:07:38;10.00;99.90
580;DHT22;276;48.392;9.950;2023-04-01T07:10:13;9.90;99.90
580;DHT22;276;48.392;9.950;2023-04-01T07:12:49;9.90;99.90
580;DHT22;276;48.392;9.950;2023-04-01T07:18:09;10.00;99.90
580;DHT22;276;48.392;9.950;2023-04-01T07:20:37;10.10;99.90
580;DHT22;276;48.392;9.950;2023-04-01T07:23:08;10.10;99.90
580;DHT22;276;48.392;9.950;2023-04-01T07:25:43;10.10;99.90
580;DHT22;276;48.392;9.950;2023-04-01T07:28:15;10.20;99.90
580;DHT22;276;48.392;9.950;2023-04-01T07:33:21;10.30;99.90
580;DHT22;276;48.392;9.950;2023-04-01T07:35:59;10.20;99.90
580;DHT22;276;48.392;9.950;2023-04-01T07:55:35;10.40;99.90
580;DHT22;276;48.392;9.950;2023-04-01T08:01:20;10.40;99.90
580;DHT22;276;48.392;9.950;2023-04-01T08:16:02;10.30;99.90
580;DHT22;276;48.392;9.950;2023-04-01T08:18:37;10.20;99.90
580;DHT22;276;48.392;9.950;2023-04-01T08:23:46;10.10;99.90
580;DHT22;276;48.392;9.950;2023-04-01T08:26:35;10.20;99.90
580;DHT22;276;48.392;9.950;2023-04-01T08:31:40;10.10;99.90
580;DHT22;276;48.392;9.950;2023-04-01T08:34:16;10.10;99.90
580;DHT22;276;48.392;9.950;2023-04-01T08:37:39;10.10;99.90
580;DHT22;276;48.392;9.950;2023-04-01T08:46:02;10.20;99.90
580;DHT22;276;48.392;9.950;2023-04-01T08:48:49;10.20;99.90
580;DHT22;276;48.392;9.950;2023-04-01T08:54:40;10.30;99.90
580;DHT22;276;48.392;9.950;2023-04-01T09:00:29;10.30;99.90
580;DHT22;276;48.392;9.950;2023-04-01T09:03:41;10.30;99.90
580;DHT22;276;48.392;9.950;2023-04-01T09:06:19;10.40;99.90
580;DHT22;276;48.392;9.950;2023-04-01T09:14:45;10.30;99.90
580;DHT22;276;48.392;9.950;2023-04-01T09:31:24;9.90;99.90
580;DHT22;276;48.392;9.950;2023-04-01T09:39:42;9.90;99.90
580;DHT22;276;48.392;9.950;2023-04-01T09:52:44;9.80;99.90
580;DHT22;276;48.392;9.950;2023-04-01T10:01:12;9.80;99.90
580;DHT22;276;48.392;9.950;2023-04-01T10:53:58;10.20;99.90
580;DHT22;276;48.392;9.950;2023-04-01T10:56:58;10.20;99.90
580;DHT22;276;48.392;9.950;2023-04-01T11:16:47;10.30;99.90
580;DHT22;276;48.392;9.950;2023-04-01T11:25:17;10.10;99.90
580;DHT22;276;48.392;9.950;2023-04-01T11:38:42;9.90;99.90
580;DHT22;276;48.392;9.950;2023-04-01T11:41:39;9.90;99.90
580;DHT22;276;48.392;9.950;2023-04-01T11:44:16;9.90;99.90
580;DHT22;276;48.392;9.950;2023-04-01T12:06:38;10.20;99.90
580;DHT22;276;48.392;9.950;2023-04-01T12:17:55;10.10;99.90
580;DHT22;276;48.392;9.950;2023-04-01T12:20:41;10.20;99.90
580;DHT22;276;48.392;9.950;2023-04-01T12:23:18;10.20;99.90
580;DHT22;276;48.392;9.950;2023-04-01T12:36:19;10.50;99.90
580;DHT22;276;48.392;9.950;2023-04-01T13:03:58;10.90;99.90
580;DHT22;276;48.392;9.950;2023-04-01T13:09:13;11.00;99.90
580;DHT22;276;48.392;9.950;2023-04-01T13:25:50;11.00;99.90
580;DHT22;276;48.392;9.950;2023-04-01T13:28:25;11.10;99.90
580;DHT22;276;48.392;9.950;2023-04-01T13:42:33;11.20;99.90
580;DHT22;276;48.392;9.950;2023-04-01T13:48:33;11.10;99.90
580;DHT22;276;48.392;9.950;2023-04-01T14:07:16;11.30;99.90
580;DHT22;276;48.392;9.950;2023-04-01T14:26:16;11.60;99.90
580;DHT22;276;48.392;9.950;2023-04-01T14:47:54;11.30;99.90
580;DHT22;276;48.392;9.950;2023-04-01T14:50:40;11.30;99.90
580;DHT22;276;48.392;9.950;2023-04-01T14:55:53;11.30;99.90
580;DHT22;276;48.392;9.950;2023-04-01T14:58:22;11.30;99.90
580;DHT22;276;48.392;9.950;2023-04-01T15:06:27;11.40;99.90
580;DHT22;276;48.392;9.950;2023-04-01T15:20:03;11.60;99.90
580;DHT22;276;48.392;9.950;2023-04-01T15:22:44;11.60;99.90
580;DHT22;276;48.392;9.950;2023-04-01T15:34:25;11.50;99.90
580;DHT22;276;48.392;9.950;2023-04-01T15:40:02;11.60;99.90
580;DHT22;276;48.392;9.950;2023-04-01T15:45:51;11.60;99.90
580;DHT22;276;48.392;9.950;2023-04-01T15:48:46;11.50;99.90
580;DHT22;276;48.392;9.950;2023-04-01T16:21:54;11.60;99.90
580;DHT22;276;48.392;9.950;2023-04-01T16:27:16;11.50;99.90
580;DHT22;276;48.392;9.950;2023-04-01T16:29:52;11.50;99.90
580;DHT22;276;48.392;9.950;2023-04-01T16:42:53;11.20;99.90
580;DHT22;276;48.392;9.950;2023-04-01T16:45:35;11.10;99.90
580;DHT22;276;48.392;9.950;2023-04-01T16:48:15;11.10;99.90
580;DHT22;276;48.392;9.950;2023-04-01T16:50:59;11.10;99.90
580;DHT22;276;48.392;9.950;2023-04-01T16:56:24;10.90;99.90
580;DHT22;276;48.392;9.950;2023-04-01T17:01:49;11.00;99.90
580;DHT22;276;48.392;9.950;2023-04-01T17:09:51;10.90;99.90
580;DHT22;276;48.392;9.950;2023-04-01T17:15:18;10.80;99.90
580;DHT22;276;48.392;9.950;2023-04-01T17:20:46;10.70;99.90
580;DHT22;276;48.392;9.950;2023-04-01T17:31:45;10.80;99.90
580;DHT22;276;48.392;9.950;2023-04-01T17:40:00;10.80;99.90
580;DHT22;276;48.392;9.950;2023-04-01T17:45:54;10.80;99.90
580;DHT22;276;48.392;9.950;2023-04-01T18:00:02;10.80;99.90
580;DHT22;276;48.392;9.950;2023-04-01T18:03:16;10.70;99.90
580;DHT22;276;48.392;9.950;2023-04-01T18:06:10;10.70;99.90
580;DHT22;276;48.392;9.950;2023-04-01T18:17:17;10.50;99.90
580;DHT22;276;48.392;9.950;2023-04-01T18:25:35;10.40;99.90
580;DHT22;276;48.392;9.950;2023-04-01T18:30:34;10.40;99.90
580;DHT22;276;48.392;9.950;2023-04-01T18:33:24;10.40;99.90
580;DHT22;276;48.392;9.950;2023-04-01T18:38:54;10.40;99.90
580;DHT22;276;48.392;9.950;2023-04-01T18:42:03;10.40;99.90
580;DHT22;276;48.392;9.950;2023-04-01T18:49:55;10.30;99.90
580;DHT22;276;48.392;9.950;2023-04-01T18:52:39;10.30;99.90
580;DHT22;276;48.392;9.950;2023-04-01T18:57:51;10.40;99.90
580;DHT22;276;48.392;9.950;2023-04-01T19:00:28;10.40;99.90
580;DHT22;276;48.392;9.950;2023-04-01T19:03:23;10.30;99.90
580;DHT22;276;48.392;9.950;2023-04-01T19:05:53;10.30;99.90
580;DHT22;276;48.392;9.950;2023-04-01T19:08:39;10.20;99.90
580;DHT22;276;48.392;9.950;2023-04-01T19:22:34;10.20;99.90
580;DHT22;276;48.392;9.950;2023-04-01T19:27:50;10.10;99.90
580;DHT22;276;48.392;9.950;2023-04-01T19:30:45;10.10;99.90
580;DHT22;276;48.392;9.950;2023-04-01T19:38:39;10.20;99.90
580;DHT22;276;48.392;9.950;2023-04-01T19:44:34;10.20;99.90
580;DHT22;276;48.392;9.950;2023-04-01T20:00:57;10.10;99.90
580;DHT22;276;48.392;9.950;2023-04-01T20:03:42;10.10;99.90
580;DHT22;276;48.392;9.950;2023-04-01T20:06:41;10.10;99.90
580;DHT22;276;48.392;9.950;2023-04-01T20:12:11;10.10;99.90
580;DHT22;276;48.392;9.950;2023-04-01T20:27:55;10.20;99.90
580;DHT22;276;48.392;9.950;2023-04-01T20:36:10;10.30;99.90
580;DHT22;276;48.392;9.950;2023-04-01T20:41:30;10.30;99.90
580;DHT22;276;48.392;9.950;2023-04-01T20:47:00;10.30;99.90
580;DHT22;276;48.392;9.950;2023-04-01T20:49:36;10.20;99.90
580;DHT22;276;48.392;9.950;2023-04-01T21:14:58;10.00;99.90
580;DHT22;276;48.392;9.950;2023-04-01T21:17:39;9.90;99.90
580;DHT22;276;48.392;9.950;2023-04-01T21:23:18;9.80;99.90
580;DHT22;276;48.392;9.950;2023-04-01T21:26:11;9.80;99.90
580;DHT22;276;48.392;9.950;2023-04-01T21:29:07;9.80;99.90
580;DHT22;276;48.392;9.950;2023-04-01T21:42:32;9.60;99.90
580;DHT22;276;48.392;9.950;2023-04-01T21:45:28;9.50;99.90
580;DHT22;276;48.392;9.950;2023-04-01T21:48:03;9.50;99.90
580;DHT22;276;48.392;9.950;2023-04-01T22:05:21;9.30;99.90
580;DHT22;276;48.392;9.950;2023-04-01T22:11:22;9.30;99.90
580;DHT22;276;48.392;9.950;2023-04-01T22:19:39;9.20;99.90
580;DHT22;276;48.392;9.950;2023-04-01T22:22:26;9.30;99.90
580;DHT22;276;48.392;9.950;2023-04-01T22:25:10;9.20;99.90
580;DHT22;276;48.392;9.950;2023-04-01T22:27:46;9.30;99.90
580;DHT22;276;48.392;9.950;2023-04-01T22:30:24;9.20;99.90
580;DHT22;276;48.392;9.950;2023-04-01T22:32:52;9.20;99.90
580;DHT22;276;48.392;9.950;2023-04-01T22:41:14;9.30;99.90
580;DHT22;276;48.392;9.950;2023-04-01T22:43:47;9.30;99.90
580;DHT22;276;48.392;9.950;2023-04-01T22:49:29;9.20;99.90
580;DHT22;276;48.392;9.950;2023-04-01T22:52:19;9.20;99.90
580;DHT22;276;48.392;9.950;2023-04-01T22:54:49;9.20;99.90
580;DHT22;276;48.392;9.950;2023-04-01T22:57:34;9.20;99.90
580;DHT22;276;48.392;9.950;2023-04-01T23:00:14;9.20;99.90
580;DHT22;276;48.392;9.950;2023-04-01T23:05:28;9.20;99.90
580;DHT22;276;48.392;9.950;2023-04-01T23:13:41;9.10;99.90
580;DHT22;276;48.392;9.950;2023-04-01T23:16:09;9.20;99.90
580;DHT22;276;48.392;9.950;2023-04-01T23:18:44;9.20;99.90
580;DHT22;276;48.392;9.950;2023-04-01T23:21:22;9.20;99.90
580;DHT22;276;48.392;9.950;2023-04-01T23:29:17;9.30;99.90
580;DHT22;276;48.392;9.950;2023-04-01T23:31:56;9.20;99.90
580;DHT22;276;48.392;9.950;2023-04-01T23:34:49;9.20;99.90
580;DHT22;276;48.392;9.950;2023-04-01T23:37:16;9.20;99.90
580;DHT22;276;48.392;9.950;2023-04-01T23:39:51;9.20;99.90
580;DHT22;276;48.392;9.950;2023-04-01T23:42:29;9.10;99.90
580;DHT22;276;48.392;9.950;2023-04-01T23:45:02;9.10;99.90
580;DHT22;276;48.392;9.950;2023-04-01T23:47:37;9.10;99.90
580;DHT22;276;48.392;9.950;2023-04-01T23:50:07;9.10;99.90
580;DHT22;276;48.392;9.950;2023-04-01T23:52:40;9.20;99.90
